Arcen, Netherlands
Current Conditions -  °F | °C
As of 11:50 PM on Wednesday 26 Nov 2014 (Local Time) from EDLV Reporting Station
Broken Clouds Broken Clouds  
Wind Chill: 37°   Ceiling: 1000
Heat Index: 43°   Visibility: 6mi
Dew Point: 41°   Wind: 10mph
Humidity: 93%   Direction: 140°SE
Pressure: 29.88"   Gusts: NA
Location:  51.48°N, 6.18°E
Report Text: EDLV 262250Z 14009KT 9999 BKN010 06/05 Q1012
Loading
Personal Weather Stations






























Interactive Weather Map New forecast layout! Learn more

10-Day Weather Forecast

Advertisements
Track Severe Weather on mobile